Los Angeles, California
Traffic Map
Current Weather Conditions
Los Angeles, California
Scattered Clouds Haze
Scattered Clouds
58°
Feels Like: 58°
Wind Chill: 58° Ceiling: Unl
Heat Index: 58° Visibility: 6mi
Dew Point: 52° Wind: 0mph
Humidity: 81% Direction: ° ()
Pressure: 29.88in Gusts: 0mph
Raw Report DataKCQT 160722Z AUTO 00000KT 6SM HZ SCT010 14/11 A2988 RMK AO2 T01440111 $
Traffic Incident Summary
Active as of:
Severity:
Category:
InformationThere was an issue retrieving the traffic information for this location. Please try a different location or try again shortly.
Advertisements
At Last! Intellicast now available for iPhone and Android